Time;durP1;ratioP1;P1;durP2;ratioP2;P2;SDS_P1;SDS_P2;PMS_P1;PMS_P2;Temp;Humidity;BMP_temperature;BMP_pressure;BME280_temperature;BME280_humidity;BME280_pressure;Samples;Min_cycle;Max_cycle;Signal;HPM_P1;HPM_P2
2021/12/18 00:01:32;;;;;;;7.10;4.07;;;;;;;0.08;83.99;96320.72;1779554;81;21258;-67
2021/12/18 00:03:59;;;;;;;10.00;6.57;;;;;;;0.07;84.08;96313.75;1779626;81;20995;-67
2021/12/18 00:06:27;;;;;;;8.10;4.90;;;;;;;0.10;83.98;96319.94;1779351;81;21103;-67
2021/12/18 00:08:58;;;;;;;6.80;4.50;;;;;;;0.12;83.85;96321.27;1779517;81;21022;-67
2021/12/18 00:11:27;;;;;;;7.60;4.70;;;;;;;0.11;83.56;96311.73;1750978;81;21640;-67
2021/12/18 00:13:53;;;;;;;7.73;4.63;;;;;;;0.09;83.59;96321.17;1779449;81;21024;-67
2021/12/18 00:16:20;;;;;;;6.53;4.40;;;;;;;0.05;83.77;96320.20;1777246;81;21573;-67
2021/12/18 00:18:50;;;;;;;7.83;4.40;;;;;;;0.05;83.78;96313.72;1770958;81;21537;-67
2021/12/18 00:21:18;;;;;;;10.23;5.70;;;;;;;0.06;83.67;96305.52;1770755;81;21533;-67
2021/12/18 00:23:46;;;;;;;5.87;3.80;;;;;;;0.10;83.67;96313.45;1770611;81;21031;-67
2021/12/18 00:26:13;;;;;;;10.13;4.60;;;;;;;0.08;83.61;96315.11;1770964;81;21011;-67
2021/12/18 00:28:39;;;;;;;6.57;4.37;;;;;;;0.03;83.72;96314.50;1771003;81;21062;-67
2021/12/18 00:31:06;;;;;;;8.90;5.33;;;;;;;0.07;83.71;96314.63;1770830;81;21011;-67
2021/12/18 00:33:32;;;;;;;8.30;4.80;;;;;;;0.11;83.62;96322.98;1770984;81;21039;-67
2021/12/18 00:35:59;;;;;;;5.00;3.23;;;;;;;0.14;83.39;96319.19;1770845;81;20976;-67
2021/12/18 00:38:29;;;;;;;9.77;4.97;;;;;;;0.14;83.31;96319.61;1771031;81;21001;-66
2021/12/18 00:41:28;;;;;;;6.90;4.40;;;;;;;0.11;83.37;96315.62;1770563;81;21058;-67
2021/12/18 00:43:32;;;;;;;9.13;4.23;;;;;;;0.11;83.49;96320.39;1759371;81;21512;-67
2021/12/18 00:45:56;;;;;;;6.23;3.93;;;;;;;0.11;83.46;96328.17;1770925;81;20996;-67
2021/12/18 00:48:24;;;;;;;6.67;3.50;;;;;;;0.04;83.56;96327.92;1770972;81;21446;-67
2021/12/18 00:50:51;;;;;;;4.07;3.00;;;;;;;0.06;83.33;96324.97;1770605;81;21104;-67
2021/12/18 00:53:19;;;;;;;7.37;3.83;;;;;;;0.04;83.23;96326.63;1763626;81;21020;-67
2021/12/18 00:55:48;;;;;;;7.00;3.80;;;;;;;0.02;83.28;96320.08;1770609;81;21139;-67
2021/12/18 00:58:15;;;;;;;7.13;3.17;;;;;;;0.03;83.33;96326.17;1770595;81;21532;-67
2021/12/18 01:00:42;;;;;;;1.90;1.60;;;;;;;0.01;83.29;96325.23;1770833;81;21031;-67
2021/12/18 01:03:21;;;;;;;3.60;3.00;;;;;;;-0.05;83.24;96333.66;1770992;81;21020;-67
2021/12/18 01:05:44;;;;;;;8.50;3.50;;;;;;;-0.03;83.24;96338.08;1769555;81;21028;-67
2021/12/18 01:08:11;;;;;;;11.23;4.60;;;;;;;-0.03;83.17;96341.97;1771029;81;21055;-67
2021/12/18 01:13:28;;;;;;;3.47;2.50;;;;;;;0.02;83.24;96343.84;1770783;81;21022;-67
2021/12/18 01:15:55;;;;;;;6.03;3.17;;;;;;;-0.01;83.05;96331.66;1770538;81;21067;-67
2021/12/18 01:23:52;;;;;;;6.47;3.83;;;;;;;0.10;82.87;96350.17;1779946;81;20980;-67
2021/12/18 01:26:18;;;;;;;7.10;3.33;;;;;;;0.11;82.74;96351.95;1779778;81;20976;-67
2021/12/18 01:28:45;;;;;;;8.00;3.70;;;;;;;0.09;82.61;96360.09;1779800;81;21046;-67
2021/12/18 01:31:11;;;;;;;6.93;3.63;;;;;;;0.12;82.40;96369.27;1779900;81;21497;-67
2021/12/18 01:33:39;;;;;;;5.73;2.90;;;;;;;0.14;82.49;96381.47;1779660;81;20956;-67
2021/12/18 01:36:06;;;;;;;5.10;3.23;;;;;;;0.14;82.31;96378.00;1779557;81;21027;-67
2021/12/18 01:38:32;;;;;;;6.20;3.50;;;;;;;0.13;82.45;96390.52;1780034;81;20955;-67
2021/12/18 01:41:02;;;;;;;7.60;4.07;;;;;;;0.08;82.64;96386.46;1779308;81;21047;-67
2021/12/18 01:54:14;;;;;;;4.08;2.70;;;;;;;0.04;82.38;96387.59;1745274;82;21061;-66
2021/12/18 01:56:42;;;;;;;8.57;4.30;;;;;;;0.07;82.22;96391.17;1768583;81;21122;-67
2021/12/18 01:59:09;;;;;;;7.33;3.90;;;;;;;0.04;82.22;96395.37;1779857;81;21023;-67
2021/12/18 02:01:35;;;;;;;7.53;4.47;;;;;;;-0.05;82.43;96390.73;1779293;81;21114;-67
2021/12/18 02:04:02;;;;;;;7.97;4.80;;;;;;;0.03;82.33;96389.73;1780003;81;20955;-67
2021/12/18 02:06:29;;;;;;;5.27;3.93;;;;;;;0.05;82.34;96385.45;1779779;81;21010;-67
2021/12/18 02:08:55;;;;;;;7.77;3.67;;;;;;;0.02;82.19;96388.83;1779709;81;21042;-67
2021/12/18 02:14:34;;;;;;;9.37;4.83;;;;;;;-0.02;82.13;96382.66;1779259;81;21023;-67
2021/12/18 02:19:50;;;;;;;9.80;3.93;;;;;;;-0.02;82.01;96381.37;1779822;81;21528;-67
2021/12/18 02:22:03;;;;;;;5.87;4.07;;;;;;;0.01;82.05;96384.91;1779465;81;21541;-67
2021/12/18 02:24:32;;;;;;;6.80;4.33;;;;;;;-0.02;81.96;96385.68;1779957;81;21055;-67
2021/12/18 02:27:00;;;;;;;6.50;4.20;;;;;;;-0.01;82.15;96392.62;1779675;81;20975;-67
2021/12/18 02:29:30;;;;;;;10.43;5.83;;;;;;;-0.01;82.12;96395.22;1779178;81;21062;-67
2021/12/18 02:31:55;;;;;;;8.63;5.77;;;;;;;-0.02;82.25;96396.06;1779864;81;21052;-67
2021/12/18 02:34:27;;;;;;;6.63;4.47;;;;;;;-0.06;82.35;96396.34;1779749;81;21461;-67
2021/12/18 02:36:50;;;;;;;8.03;4.40;;;;;;;-0.07;82.36;96401.50;1779641;81;21027;-67
2021/12/18 02:39:35;;;;;;;9.20;5.03;;;;;;;-0.08;82.51;96405.78;1779720;81;21050;-67
2021/12/18 02:44:32;;;;;;;;;;;;;;;-0.03;82.50;96402.94;1747516;82;21107;-67
2021/12/18 02:46:59;;;;;;;6.20;4.07;;;;;;;0.01;82.51;96413.44;1768243;81;20387;-67
2021/12/18 02:49:27;;;;;;;9.80;4.40;;;;;;;-0.02;82.42;96411.20;1779372;81;21027;-67
2021/12/18 02:51:54;;;;;;;8.97;4.37;;;;;;;-0.03;82.56;96412.44;1779634;81;21377;-67
2021/12/18 02:54:21;;;;;;;8.47;4.50;;;;;;;-0.05;82.73;96416.29;1779726;81;21023;-67
2021/12/18 02:56:47;;;;;;;7.77;4.57;;;;;;;-0.10;82.96;96417.84;1779623;81;20976;-67
2021/12/18 02:59:15;;;;;;;7.57;4.83;;;;;;;-0.15;83.19;96413.29;1779634;81;21437;-67
2021/12/18 03:01:42;;;;;;;11.07;4.83;;;;;;;-0.16;83.25;96413.71;1779733;81;21071;-67
2021/12/18 03:04:27;;;;;;;9.00;4.83;;;;;;;-0.16;83.37;96407.23;1779538;81;21122;-67
2021/12/18 03:06:55;;;;;;;10.87;5.50;;;;;;;-0.17;83.47;96412.38;1779911;81;21027;-67
2021/12/18 03:19:38;;;;;;;5.17;3.33;;;;;;;-0.28;83.97;96417.16;1779602;81;21517;-67
2021/12/18 03:23:10;;;;;;;6.40;4.17;;;;;;;-0.35;84.15;96422.94;1779626;81;21055;-67
2021/12/18 03:25:28;;;;;;;8.23;4.90;;;;;;;-0.34;84.27;96424.73;1778995;81;21046;-68
2021/12/18 03:27:54;;;;;;;8.00;4.33;;;;;;;-0.32;84.20;96432.16;1779769;81;21541;-68
2021/12/18 03:30:22;;;;;;;7.40;4.40;;;;;;;-0.31;84.11;96426.13;1779494;81;20988;-68
2021/12/18 03:32:49;;;;;;;8.10;4.63;;;;;;;-0.33;84.23;96426.48;1779592;81;21489;-68
2021/12/18 03:35:17;;;;;;;8.60;5.43;;;;;;;-0.37;83.94;96431.98;1779437;81;21110;-68
2021/12/18 03:37:44;;;;;;;8.63;4.53;;;;;;;-0.37;84.03;96425.92;1780213;81;21006;-68
2021/12/18 03:40:19;;;;;;;10.30;4.53;;;;;;;-0.38;84.16;96431.49;1779466;81;21014;-68
2021/12/18 03:42:46;;;;;;;8.53;5.10;;;;;;;-0.44;84.38;96445.12;1779651;81;20975;-68
2021/12/18 03:45:17;;;;;;;7.37;3.73;;;;;;;-0.41;84.22;96429.21;1779227;81;21013;-68
2021/12/18 03:47:46;;;;;;;6.93;4.67;;;;;;;-0.41;84.11;96444.34;1779588;81;21024;-68
2021/12/18 03:50:13;;;;;;;8.73;4.20;;;;;;;-0.42;84.08;96444.31;1779616;81;21023;-68
2021/12/18 03:52:39;;;;;;;11.03;4.57;;;;;;;-0.42;84.16;96450.80;1779659;81;20995;-67
2021/12/18 03:55:07;;;;;;;7.00;4.20;;;;;;;-0.44;84.18;96444.24;1779629;81;21030;-67
2021/12/18 03:57:34;;;;;;;7.87;4.57;;;;;;;-0.41;84.20;96451.25;1779623;81;21421;-67
2021/12/18 04:00:04;;;;;;;6.07;4.10;;;;;;;-0.37;84.12;96445.36;1779099;81;21067;-67
2021/12/18 04:02:33;;;;;;;5.37;4.23;;;;;;;-0.44;84.26;96449.42;1779596;81;21058;-67
2021/12/18 04:05:00;;;;;;;6.93;4.57;;;;;;;-0.44;83.94;96449.00;1779759;81;21492;-67
2021/12/18 04:07:26;;;;;;;6.83;4.30;;;;;;;-0.46;83.85;96446.77;1779498;81;20999;-67
2021/12/18 04:09:52;;;;;;;9.07;4.93;;;;;;;-0.49;83.86;96447.95;1779351;81;21099;-67
2021/12/18 04:12:19;;;;;;;7.50;4.70;;;;;;;-0.54;83.97;96450.78;1779752;81;21429;-67
2021/12/18 04:14:46;;;;;;;5.20;3.63;;;;;;;-0.58;84.08;96451.91;1779363;81;21019;-67
2021/12/18 04:17:12;;;;;;;7.90;4.23;;;;;;;-0.61;84.04;96453.09;1779622;81;20984;-67
2021/12/18 04:19:39;;;;;;;4.50;3.47;;;;;;;-0.59;84.00;96461.39;1779361;81;21011;-67
2021/12/18 04:22:06;;;;;;;7.07;3.50;;;;;;;-0.61;84.04;96453.97;1779579;81;21512;-67
2021/12/18 04:24:32;;;;;;;8.83;4.43;;;;;;;-0.59;83.96;96463.11;1779678;81;21545;-67
2021/12/18 04:26:59;;;;;;;10.07;5.10;;;;;;;-0.61;83.95;96461.74;1779807;81;20964;-67
2021/12/18 04:29:25;;;;;;;9.13;4.90;;;;;;;-0.59;83.85;96453.62;1779568;81;21091;-67
2021/12/18 04:31:52;;;;;;;8.63;5.10;;;;;;;-0.61;83.79;96468.22;1779680;81;21023;-67
2021/12/18 04:34:18;;;;;;;7.10;4.57;;;;;;;-0.64;83.89;96481.48;1779341;81;21094;-67
2021/12/18 04:36:44;;;;;;;7.30;4.77;;;;;;;-0.64;84.03;96486.67;1779754;81;20987;-67
2021/12/18 04:39:11;;;;;;;11.27;5.27;;;;;;;-0.62;84.05;96483.31;1779580;81;21095;-67
2021/12/18 04:41:47;;;;;;;6.63;3.77;;;;;;;-0.57;83.97;96483.50;1779432;81;21030;-67
2021/12/18 04:44:09;;;;;;;9.93;4.90;;;;;;;-0.60;83.82;96485.56;1779744;81;21019;-67
2021/12/18 04:46:36;;;;;;;5.93;4.03;;;;;;;-0.65;83.97;96496.16;1779842;81;20987;-67
2021/12/18 04:49:03;;;;;;;7.17;4.03;;;;;;;-0.67;83.89;96493.92;1779390;81;21107;-67
2021/12/18 04:51:30;;;;;;;8.03;4.20;;;;;;;-0.65;83.79;96498.75;1779771;81;21473;-67
2021/12/18 04:53:56;;;;;;;8.77;4.10;;;;;;;-0.66;83.55;96499.17;1780055;81;21015;-67
2021/12/18 04:56:23;;;;;;;7.50;2.93;;;;;;;-0.68;83.24;96500.81;1779648;81;21035;-67
2021/12/18 04:58:50;;;;;;;4.97;3.57;;;;;;;-0.69;83.33;96505.92;1779532;81;21142;-67
2021/12/18 05:01:17;;;;;;;6.60;3.83;;;;;;;-0.72;83.31;96507.11;1779797;81;20983;-67
2021/12/18 05:03:46;;;;;;;8.47;3.87;;;;;;;-0.69;83.33;96518.47;1779798;81;20980;-67
2021/12/18 05:06:12;;;;;;;4.63;3.23;;;;;;;-0.69;83.31;96521.48;1779777;81;21035;-67
2021/12/18 05:08:39;;;;;;;6.63;3.70;;;;;;;-0.73;83.23;96514.39;1779456;81;21058;-67
2021/12/18 05:11:06;;;;;;;6.43;3.40;;;;;;;-0.75;83.38;96519.95;1779318;81;21078;-67
2021/12/18 05:13:33;;;;;;;6.53;3.93;;;;;;;-0.76;83.41;96518.16;1779845;81;21020;-67
2021/12/18 05:16:00;;;;;;;7.03;3.60;;;;;;;-0.78;83.25;96522.39;1779840;81;21465;-67
2021/12/18 05:18:27;;;;;;;7.63;3.90;;;;;;;-0.77;83.24;96526.35;1779522;81;21019;-67
2021/12/18 05:20:54;;;;;;;7.33;4.07;;;;;;;-0.82;83.20;96533.06;1779785;81;20991;-67
2021/12/18 05:23:20;;;;;;;7.57;3.50;;;;;;;-0.83;83.17;96538.17;1780006;81;21011;-67
2021/12/18 05:25:46;;;;;;;5.93;3.70;;;;;;;-0.85;83.17;96536.83;1779360;81;21075;-67
2021/12/18 05:28:13;;;;;;;7.17;4.33;;;;;;;-0.87;83.28;96540.64;1779768;81;21055;-67
2021/12/18 05:30:40;;;;;;;6.13;3.40;;;;;;;-0.86;83.25;96541.52;1779589;81;21015;-67
2021/12/18 05:33:07;;;;;;;7.53;3.70;;;;;;;-0.89;83.12;96544.00;1779699;81;21016;-67
2021/12/18 05:35:34;;;;;;;8.83;4.13;;;;;;;-0.90;83.05;96545.71;1779896;81;21007;-67
2021/12/18 05:38:06;;;;;;;8.73;4.43;;;;;;;-0.93;82.98;96558.55;1779327;81;21070;-68
2021/12/18 05:40:35;;;;;;;5.90;3.70;;;;;;;-0.94;82.95;96570.13;1779817;81;21077;-67
2021/12/18 05:43:02;;;;;;;7.80;3.60;;;;;;;-0.96;82.98;96569.17;1779696;81;20971;-67
2021/12/18 05:45:29;;;;;;;5.83;3.30;;;;;;;-0.97;83.08;96569.59;1779307;81;21034;-67
2021/12/18 05:47:56;;;;;;;6.07;2.70;;;;;;;-0.97;83.04;96581.25;1779654;81;21011;-67
2021/12/18 05:50:29;;;;;;;4.97;2.60;;;;;;;-0.99;82.98;96584.17;1779392;81;21118;-67
2021/12/18 05:52:58;;;;;;;3.70;2.80;;;;;;;-0.99;82.98;96580.70;1779374;81;21042;-67
2021/12/18 05:55:28;;;;;;;5.77;2.50;;;;;;;-1.02;82.84;96584.05;1779833;81;21031;-67
2021/12/18 05:57:55;;;;;;;4.43;2.70;;;;;;;-1.05;82.86;96594.72;1779457;81;21035;-67
2021/12/18 06:00:22;;;;;;;3.73;2.50;;;;;;;-1.00;82.90;96592.78;1779585;81;21067;-67
2021/12/18 06:02:49;;;;;;;5.70;2.33;;;;;;;-0.99;82.76;96598.42;1779382;81;21019;-67
2021/12/18 06:05:16;;;;;;;4.20;2.40;;;;;;;-0.94;82.69;96606.39;1779728;81;21497;-66
2021/12/18 06:07:58;;;;;;;4.40;2.50;;;;;;;-0.96;82.47;96605.05;1779675;81;21025;-66
2021/12/18 06:10:28;;;;;;;3.80;2.47;;;;;;;-0.95;82.53;96608.52;1779800;81;20983;-67
2021/12/18 06:12:59;;;;;;;3.50;2.17;;;;;;;-0.96;82.43;96602.84;1779670;81;21046;-67
2021/12/18 06:15:26;;;;;;;3.60;2.50;;;;;;;-0.98;82.29;96609.28;1779308;81;21528;-67
2021/12/18 06:17:55;;;;;;;4.23;2.30;;;;;;;-0.98;82.16;96612.29;1779024;81;20980;-67
2021/12/18 06:20:26;;;;;;;5.30;2.07;;;;;;;-0.95;82.11;96602.92;1771081;81;21063;-66
2021/12/18 06:22:53;;;;;;;4.53;2.13;;;;;;;-0.94;81.92;96619.34;1770972;81;21039;-67
2021/12/18 06:25:20;;;;;;;10.30;5.20;;;;;;;-0.89;81.98;96620.42;1771116;81;21087;-67
2021/12/18 06:27:47;;;;;;;9.23;6.97;;;;;;;-0.88;81.76;96620.92;1771128;81;20988;-66
2021/12/18 06:30:19;;;;;;;15.20;8.77;;;;;;;-0.88;81.69;96630.86;1770629;81;21064;-67
2021/12/18 06:32:43;;;;;;;5.27;2.73;;;;;;;-0.88;81.67;96636.05;1770281;81;20972;-66
2021/12/18 06:35:10;;;;;;;6.17;3.67;;;;;;;-0.87;81.29;96635.21;1770317;81;21099;-67
2021/12/18 06:37:37;;;;;;;4.53;3.00;;;;;;;-0.82;81.44;96638.42;1770686;81;21161;-67
2021/12/18 06:40:06;;;;;;;4.70;2.33;;;;;;;-0.75;81.34;96653.41;1771183;81;20980;-67
2021/12/18 06:42:33;;;;;;;4.87;2.90;;;;;;;-0.73;80.98;96655.63;1770935;81;21027;-67
2021/12/18 06:44:59;;;;;;;4.00;1.83;;;;;;;-0.75;80.37;96654.28;1771129;81;21047;-67
2021/12/18 06:47:26;;;;;;;3.03;2.13;;;;;;;-0.75;80.27;96656.88;1770551;81;21019;-66
2021/12/18 06:49:52;;;;;;;5.47;3.17;;;;;;;-0.75;80.33;96659.89;1770900;81;21072;-67
2021/12/18 06:52:19;;;;;;;4.93;2.77;;;;;;;-0.77;80.36;96657.63;1770998;81;21016;-66
2021/12/18 06:54:45;;;;;;;4.30;2.43;;;;;;;-0.76;80.59;96658.09;1770953;81;21026;-67
2021/12/18 06:57:12;;;;;;;6.33;2.33;;;;;;;-0.76;80.75;96653.79;1770943;81;21020;-67
2021/12/18 06:59:38;;;;;;;10.70;6.33;;;;;;;-0.78;80.43;96645.48;1770618;81;21138;-66
2021/12/18 07:02:05;;;;;;;4.33;2.30;;;;;;;-0.83;80.25;96646.99;1771017;81;21055;-66
2021/12/18 07:04:32;;;;;;;5.00;2.70;;;;;;;-0.82;80.42;96651.38;1770616;81;21100;-66
2021/12/18 07:06:59;;;;;;;8.20;4.90;;;;;;;-0.81;80.74;96641.47;1770654;81;21095;-67
2021/12/18 07:09:25;;;;;;;3.97;3.00;;;;;;;-0.74;80.84;96646.09;1770915;81;21039;-67
2021/12/18 07:11:52;;;;;;;6.03;3.20;;;;;;;-0.67;80.87;96645.53;1770724;81;21039;-67
2021/12/18 07:14:18;;;;;;;3.20;2.13;;;;;;;-0.62;80.49;96645.31;1771016;81;21056;-67
2021/12/18 07:16:45;;;;;;;4.57;2.90;;;;;;;-0.65;79.57;96651.67;1770329;81;21091;-66
2021/12/18 07:19:12;;;;;;;8.27;2.87;;;;;;;-0.67;79.29;96646.83;1770891;81;21501;-67
2021/12/18 07:21:38;;;;;;;3.93;2.80;;;;;;;-0.64;79.63;96644.77;1771161;81;21035;-67
2021/12/18 07:24:06;;;;;;;4.63;2.90;;;;;;;-0.59;79.46;96647.14;1770637;81;21130;-67
2021/12/18 07:26:33;;;;;;;3.93;2.53;;;;;;;-0.56;79.27;96648.14;1771013;81;21023;-67
2021/12/18 07:29:00;;;;;;;6.97;4.70;;;;;;;-0.52;78.40;96657.83;1771119;81;21043;-67
2021/12/18 07:31:27;;;;;;;14.30;7.73;;;;;;;-0.45;78.64;96668.92;1770414;81;21040;-67
2021/12/18 07:33:54;;;;;;;8.70;5.23;;;;;;;-0.44;78.58;96671.98;1770975;81;21020;-67
2021/12/18 07:36:21;;;;;;;9.20;5.60;;;;;;;-0.39;78.19;96677.78;1771063;81;21534;-67
2021/12/18 07:38:47;;;;;;;10.73;5.27;;;;;;;-0.32;78.55;96686.28;1770790;81;21012;-67
2021/12/18 07:41:14;;;;;;;14.93;7.90;;;;;;;-0.31;77.80;96685.03;1770785;81;21536;-67
2021/12/18 07:43:41;;;;;;;10.73;6.27;;;;;;;-0.31;77.55;96692.81;1763843;81;20999;-67
2021/12/18 07:46:07;;;;;;;12.43;6.13;;;;;;;-0.36;77.43;96699.52;1770761;81;20960;-67
2021/12/18 07:48:34;;;;;;;7.37;4.23;;;;;;;-0.35;77.63;96698.72;1770614;81;21032;-67
2021/12/18 07:51:00;;;;;;;7.10;4.17;;;;;;;-0.31;77.40;96694.53;1770896;81;21052;-67
2021/12/18 07:53:27;;;;;;;7.10;4.30;;;;;;;-0.31;76.73;96691.94;1770911;81;21094;-67
2021/12/18 07:55:53;;;;;;;5.83;3.23;;;;;;;-0.33;76.82;96698.76;1770969;81;21525;-67
2021/12/18 07:58:20;;;;;;;15.03;6.43;;;;;;;-0.44;76.82;96693.14;1770748;81;21000;-68
2021/12/18 08:00:46;;;;;;;22.03;12.67;;;;;;;-0.36;77.03;96690.86;1770774;81;21027;-67
2021/12/18 08:03:13;;;;;;;5.43;3.03;;;;;;;-0.31;77.31;96682.44;1771019;81;21012;-67
2021/12/18 08:05:40;;;;;;;6.47;3.33;;;;;;;-0.25;76.68;96681.41;1770516;81;21169;-67
2021/12/18 08:08:06;;;;;;;3.27;2.27;;;;;;;-0.27;76.62;96686.06;1770997;81;21473;-68
2021/12/18 08:10:33;;;;;;;5.87;3.67;;;;;;;-0.27;76.47;96679.16;1770619;81;21031;-68
2021/12/18 08:12:59;;;;;;;7.10;4.37;;;;;;;-0.19;76.84;96678.17;1770714;81;21032;-68
2021/12/18 08:15:26;;;;;;;10.47;6.67;;;;;;;-0.11;76.95;96669.39;1771046;81;21011;-67
2021/12/18 08:17:54;;;;;;;9.70;4.40;;;;;;;-0.03;76.48;96674.05;1763743;81;20983;-67
2021/12/18 08:20:20;;;;;;;6.33;2.97;;;;;;;0.03;76.16;96667.36;1770609;81;21490;-67
2021/12/18 08:22:47;;;;;;;9.70;5.03;;;;;;;0.06;75.81;96673.55;1770809;81;21091;-68
2021/12/18 08:25:13;;;;;;;6.67;3.53;;;;;;;0.09;75.96;96676.67;1770697;81;21024;-68
2021/12/18 08:27:40;;;;;;;4.20;2.53;;;;;;;0.10;75.54;96679.34;1770868;81;21438;-67
2021/12/18 08:30:09;;;;;;;7.33;3.43;;;;;;;0.16;75.31;96678.68;1770917;81;21018;-68
2021/12/18 08:32:39;;;;;;;3.70;1.93;;;;;;;0.16;75.47;96685.17;1770780;81;21487;-68
2021/12/18 08:35:06;;;;;;;17.97;7.30;;;;;;;0.10;75.32;96683.61;1770886;81;21549;-68
2021/12/18 08:37:32;;;;;;;12.40;5.67;;;;;;;0.04;74.80;96689.45;1771011;81;21497;-68
2021/12/18 08:39:59;;;;;;;11.13;5.90;;;;;;;0.10;74.92;96704.38;1770799;81;21557;-67
2021/12/18 08:42:26;;;;;;;13.07;7.30;;;;;;;0.24;75.32;96701.91;1770551;81;21058;-67
2021/12/18 08:44:52;;;;;;;14.33;6.37;;;;;;;0.26;74.86;96700.69;1770896;81;21486;-67
2021/12/18 08:47:19;;;;;;;27.83;11.87;;;;;;;0.27;74.76;96699.85;1771003;81;20972;-67
2021/12/18 08:49:46;;;;;;;24.13;10.27;;;;;;;0.32;74.49;96706.11;1770493;81;21561;-67
2021/12/18 08:52:12;;;;;;;7.40;3.93;;;;;;;0.31;74.41;96706.52;1770559;81;21011;-67
2021/12/18 08:54:39;;;;;;;14.73;7.53;;;;;;;0.32;74.43;96708.70;1770459;81;21034;-67
2021/12/18 08:57:06;;;;;;;8.93;4.60;;;;;;;0.41;74.70;96707.35;1770999;81;20996;-67
2021/12/18 08:59:32;;;;;;;5.73;3.10;;;;;;;0.50;74.61;96702.03;1770624;81;21020;-67
2021/12/18 09:01:59;;;;;;;3.33;2.00;;;;;;;0.56;74.03;96695.36;1770259;81;21066;-67
2021/12/18 09:04:25;;;;;;;7.93;3.57;;;;;;;0.53;73.27;96699.54;1770581;81;21098;-67
2021/12/18 09:06:52;;;;;;;4.23;2.80;;;;;;;0.54;73.19;96694.84;1770821;81;21090;-67
2021/12/18 09:09:18;;;;;;;10.83;5.60;;;;;;;0.48;73.21;96690.69;1770475;81;20996;-67
2021/12/18 09:11:45;;;;;;;5.97;2.80;;;;;;;0.56;73.59;96692.77;1770928;81;21003;-67
2021/12/18 09:14:11;;;;;;;4.77;2.87;;;;;;;0.59;73.12;96701.09;1770817;81;21084;-67
2021/12/18 09:16:38;;;;;;;5.43;2.80;;;;;;;0.55;72.99;96700.48;1770720;81;21003;-67
2021/12/18 09:19:04;;;;;;;6.33;2.97;;;;;;;0.64;73.37;96704.32;1772294;81;21082;-67
2021/12/18 09:21:31;;;;;;;13.03;7.90;;;;;;;0.72;73.44;96699.83;1779590;81;21015;-67
2021/12/18 09:23:58;;;;;;;4.57;3.00;;;;;;;0.80;73.38;96700.98;1779492;81;21011;-67
2021/12/18 09:26:25;;;;;;;5.90;3.93;;;;;;;0.85;73.06;96696.84;1779666;81;21000;-68
2021/12/18 09:28:51;;;;;;;3.70;2.60;;;;;;;0.92;72.82;96694.95;1779411;81;21043;-67
2021/12/18 09:31:18;;;;;;;10.03;5.50;;;;;;;0.96;72.27;96702.42;1779725;81;21450;-68
2021/12/18 09:33:44;;;;;;;6.30;3.23;;;;;;;1.02;72.15;96695.74;1779772;81;21018;-68
2021/12/18 09:36:11;;;;;;;4.23;2.80;;;;;;;1.10;71.69;96689.94;1779674;81;21027;-67
2021/12/18 09:38:38;;;;;;;3.83;2.70;;;;;;;1.22;72.12;96682.58;1779736;81;21019;-68
2021/12/18 09:41:06;;;;;;;3.00;2.00;;;;;;;1.32;71.71;96683.78;1779838;81;21007;-67
2021/12/18 09:43:35;;;;;;;5.73;3.50;;;;;;;1.40;70.61;96686.23;1779572;81;21058;-67
2021/12/18 09:46:11;;;;;;;9.13;5.43;;;;;;;1.64;70.26;96689.66;1779849;81;21094;-66
2021/12/18 09:48:41;;;;;;;5.90;3.77;;;;;;;1.98;70.01;96682.95;1779697;81;20984;-68
2021/12/18 09:51:18;;;;;;;3.90;2.87;;;;;;;2.36;69.04;96685.86;1779620;81;21036;-66
2021/12/18 09:53:40;;;;;;;6.33;2.60;;;;;;;2.60;67.51;96675.31;1779821;81;21024;-66
2021/12/18 09:56:08;;;;;;;7.40;4.20;;;;;;;2.74;65.64;96671.36;1779795;81;21497;-66
2021/12/18 09:58:34;;;;;;;4.83;2.90;;;;;;;2.83;65.44;96675.09;1779331;81;21142;-66
2021/12/18 10:01:02;;;;;;;3.87;2.63;;;;;;;2.94;65.78;96674.54;1779965;81;21035;-66
2021/12/18 10:03:53;;;;;;;5.80;3.70;;;;;;;3.19;64.92;96660.45;1779208;81;21094;-66
2021/12/18 10:06:44;;;;;;;5.83;3.67;;;;;;;3.57;63.88;96663.19;1779664;81;20968;-67
2021/12/18 10:09:22;;;;;;;4.47;2.90;;;;;;;3.78;61.85;96663.27;1779689;81;21035;-67
2021/12/18 10:12:00;;;;;;;5.83;2.90;;;;;;;4.07;62.26;96661.38;1779575;81;21027;-66
2021/12/18 10:14:40;;;;;;;5.50;3.30;;;;;;;4.11;60.33;96657.57;1779976;81;21031;-67
2021/12/18 10:17:36;;;;;;;34.50;17.30;;;;;;;4.18;59.82;96660.31;1779803;81;21011;-66
2021/12/18 10:20:24;;;;;;;7.73;3.80;;;;;;;4.04;60.34;96654.78;1779691;81;21039;-66
2021/12/18 10:22:55;;;;;;;6.57;3.60;;;;;;;3.99;60.98;96655.09;1779746;81;21003;-67
2021/12/18 10:25:33;;;;;;;4.77;3.40;;;;;;;4.38;61.74;96655.55;1779830;81;21087;-67
2021/12/18 10:28:10;;;;;;;7.63;4.57;;;;;;;4.51;60.12;96651.03;1779243;81;21082;-66
2021/12/18 10:30:32;;;;;;;;;;;;;;;4.67;58.50;96644.00;1782387;81;21067;-66
2021/12/18 10:33:06;;;;;;;4.83;3.63;;;;;;;4.91;58.86;96643.64;1779511;81;20082;-66
2021/12/18 10:35:52;;;;;;;5.90;3.83;;;;;;;5.16;57.65;96646.28;1779767;81;20987;-66
2021/12/18 10:38:45;;;;;;;4.67;3.10;;;;;;;4.99;57.28;96645.09;1779869;81;21007;-66
2021/12/18 10:41:30;;;;;;;3.90;2.90;;;;;;;4.70;58.45;96644.06;1779620;80;21012;-66
2021/12/18 10:44:04;;;;;;;6.67;3.67;;;;;;;4.21;58.36;96645.61;1779506;81;21040;-66
2021/12/18 10:46:33;;;;;;;6.50;3.70;;;;;;;4.01;59.49;96651.67;1779429;81;21103;-66
2021/12/18 10:49:10;;;;;;;6.23;4.80;;;;;;;4.42;58.76;96640.41;1779186;81;21035;-66
2021/12/18 10:51:39;;;;;;;8.10;4.87;;;;;;;4.76;58.94;96636.36;1779752;81;21035;-66
2021/12/18 10:54:22;;;;;;;5.10;3.80;;;;;;;5.11;57.70;96630.05;1779611;81;21039;-66
2021/12/18 10:56:52;;;;;;;5.70;3.65;;;;;;;4.71;57.75;96628.84;1779608;81;21066;-66
2021/12/18 10:59:32;;;;;;;4.60;3.43;;;;;;;3.99;58.05;96632.47;1779652;81;21031;-66
2021/12/18 11:02:03;;;;;;;8.23;4.77;;;;;;;3.88;60.09;96627.40;1779631;81;21031;-66
2021/12/18 11:04:33;;;;;;;6.50;4.67;;;;;;;4.28;59.17;96620.48;1779313;81;21031;-66
2021/12/18 11:07:26;;;;;;;7.60;6.40;;;;;;;4.56;57.65;96608.89;1779814;81;20975;-66
2021/12/18 11:10:13;;;;;;;7.20;5.10;;;;;;;4.64;56.54;96613.88;1779517;80;21032;-66
2021/12/18 11:15:14;;;;;;;8.10;6.37;;;;;;;3.61;59.04;96620.69;1779247;81;21027;-66
2021/12/18 11:17:41;;;;;;;7.67;5.00;;;;;;;3.30;60.59;96623.34;1779210;81;21055;-66
2021/12/18 11:20:10;;;;;;;7.03;4.20;;;;;;;3.24;61.08;96623.64;1776308;81;21030;-66
2021/12/18 11:22:38;;;;;;;10.60;5.87;;;;;;;3.13;62.11;96626.41;1771088;81;21541;-66
2021/12/18 11:25:09;;;;;;;8.20;5.23;;;;;;;3.15;61.89;96626.42;1770988;81;21488;-66
2021/12/18 11:27:37;;;;;;;5.37;3.37;;;;;;;2.85;62.44;96628.69;1771144;81;21070;-66
2021/12/18 11:30:08;;;;;;;5.93;4.10;;;;;;;3.08;62.44;96629.74;1770780;81;21062;-66
2021/12/18 11:32:40;;;;;;;5.97;3.57;;;;;;;3.40;61.42;96620.12;1770950;81;20971;-66
2021/12/18 11:35:12;;;;;;;4.60;3.60;;;;;;;3.36;60.76;96622.22;1770901;81;21027;-66
2021/12/18 11:37:46;;;;;;;4.57;3.50;;;;;;;3.58;60.72;96628.84;1770820;81;21533;-66
2021/12/18 11:40:20;;;;;;;3.73;2.80;;;;;;;3.59;59.28;96628.89;1770896;81;21012;-66
2021/12/18 11:42:46;;;;;;;3.85;2.62;;;;;;;3.52;60.26;96630.00;1771020;81;21031;-66
2021/12/18 11:45:13;;;;;;;4.53;3.03;;;;;;;3.41;59.05;96632.34;1770880;81;21024;-66
2021/12/18 11:47:44;;;;;;;2.70;2.13;;;;;;;3.58;60.08;96639.28;1770599;81;21518;-66
2021/12/18 11:50:24;;;;;;;4.93;2.50;;;;;;;3.93;59.93;96631.03;1770769;81;21011;-66
2021/12/18 11:53:05;;;;;;;3.63;2.00;;;;;;;4.23;57.66;96626.91;1771079;81;20995;-66
2021/12/18 11:55:52;;;;;;;3.60;2.13;;;;;;;4.54;57.25;96627.61;1770621;81;20996;-66
2021/12/18 11:58:28;;;;;;;9.37;5.87;;;;;;;4.76;56.28;96632.84;1770994;81;21023;-66
2021/12/18 12:01:05;;;;;;;6.87;3.00;;;;;;;4.69;56.88;96636.20;1770930;81;21031;-66
2021/12/18 12:03:46;;;;;;;3.23;2.40;;;;;;;4.28;55.98;96631.84;1771165;81;21406;-66
2021/12/18 12:06:33;;;;;;;6.80;4.00;;;;;;;3.80;56.71;96634.17;1770751;81;21047;-66
2021/12/18 12:09:35;;;;;;;11.50;3.87;;;;;;;3.44;57.42;96635.91;1770831;81;21139;-66
2021/12/18 12:12:08;;;;;;;7.17;4.47;;;;;;;3.07;58.83;96637.95;1770850;81;21059;-66
2021/12/18 12:14:39;;;;;;;5.87;3.70;;;;;;;2.95;59.59;96637.22;1771142;81;21043;-66
2021/12/18 12:17:27;;;;;;;5.10;3.50;;;;;;;2.76;60.34;96636.23;1770877;81;21564;-66
2021/12/18 12:20:05;;;;;;;3.33;2.80;;;;;;;2.64;61.20;96634.58;1771563;81;21129;-66
2021/12/18 12:22:42;;;;;;;8.40;4.83;;;;;;;2.42;62.07;96637.88;1779563;81;21035;-66
2021/12/18 12:25:15;;;;;;;62.33;21.47;;;;;;;2.27;62.77;96632.19;1779296;81;21493;-66
2021/12/18 12:27:46;;;;;;;57.50;20.53;;;;;;;2.25;63.42;96632.58;1779812;81;20992;-67